sensor_id;sensor_type;location;lat;lon;timestamp;temperature;humidity
3198;DHT22;1611;49.394;11.136;2022-09-30T00:00:20;7.70;72.40
3198;DHT22;1611;49.394;11.136;2022-09-30T00:02:47;7.70;72.20
3198;DHT22;1611;49.394;11.136;2022-09-30T00:05:14;7.70;72.40
3198;DHT22;1611;49.394;11.136;2022-09-30T00:07:41;7.60;72.80
3198;DHT22;1611;49.394;11.136;2022-09-30T00:10:09;7.70;72.70
3198;DHT22;1611;49.394;11.136;2022-09-30T00:12:36;7.70;72.80
3198;DHT22;1611;49.394;11.136;2022-09-30T00:15:05;7.70;72.70
3198;DHT22;1611;49.394;11.136;2022-09-30T00:17:32;7.70;72.70
3198;DHT22;1611;49.394;11.136;2022-09-30T00:19:59;7.70;72.60
3198;DHT22;1611;49.394;11.136;2022-09-30T00:22:25;7.60;72.30
3198;DHT22;1611;49.394;11.136;2022-09-30T00:24:52;7.60;72.10
3198;DHT22;1611;49.394;11.136;2022-09-30T00:27:21;7.60;71.80
3198;DHT22;1611;49.394;11.136;2022-09-30T00:29:48;7.50;72.00
3198;DHT22;1611;49.394;11.136;2022-09-30T00:32:15;7.50;71.60
3198;DHT22;1611;49.394;11.136;2022-09-30T00:34:42;7.40;71.80
3198;DHT22;1611;49.394;11.136;2022-09-30T00:37:09;7.30;72.10
3198;DHT22;1611;49.394;11.136;2022-09-30T00:39:39;7.20;72.00
3198;DHT22;1611;49.394;11.136;2022-09-30T00:42:11;7.20;72.70
3198;DHT22;1611;49.394;11.136;2022-09-30T00:44:52;7.20;72.50
3198;DHT22;1611;49.394;11.136;2022-09-30T00:47:31;7.20;72.20
3198;DHT22;1611;49.394;11.136;2022-09-30T00:50:00;7.20;72.00
3198;DHT22;1611;49.394;11.136;2022-09-30T00:52:28;7.10;72.60
3198;DHT22;1611;49.394;11.136;2022-09-30T00:54:57;7.10;72.30
3198;DHT22;1611;49.394;11.136;2022-09-30T00:57:26;7.00;72.20
3198;DHT22;1611;49.394;11.136;2022-09-30T00:59:55;6.90;72.60
3198;DHT22;1611;49.394;11.136;2022-09-30T01:02:22;6.80;72.70
3198;DHT22;1611;49.394;11.136;2022-09-30T01:04:49;6.70;72.90
3198;DHT22;1611;49.394;11.136;2022-09-30T01:07:16;6.70;73.70
3198;DHT22;1611;49.394;11.136;2022-09-30T01:09:44;6.70;73.80
3198;DHT22;1611;49.394;11.136;2022-09-30T01:12:14;6.80;73.60
3198;DHT22;1611;49.394;11.136;2022-09-30T01:14:43;6.80;73.60
3198;DHT22;1611;49.394;11.136;2022-09-30T01:17:18;6.80;73.40
3198;DHT22;1611;49.394;11.136;2022-09-30T01:20:12;6.70;73.00
3198;DHT22;1611;49.394;11.136;2022-09-30T01:22:57;6.50;73.30
3198;DHT22;1611;49.394;11.136;2022-09-30T01:25:53;6.50;73.30
3198;DHT22;1611;49.394;11.136;2022-09-30T01:28:57;6.50;72.60
3198;DHT22;1611;49.394;11.136;2022-09-30T01:31:41;6.40;73.10
3198;DHT22;1611;49.394;11.136;2022-09-30T01:34:16;6.50;72.80
3198;DHT22;1611;49.394;11.136;2022-09-30T01:36:57;6.50;72.40
3198;DHT22;1611;49.394;11.136;2022-09-30T01:39:37;6.50;72.30
3198;DHT22;1611;49.394;11.136;2022-09-30T01:42:15;6.40;72.60
3198;DHT22;1611;49.394;11.136;2022-09-30T01:44:50;6.40;72.60
3198;DHT22;1611;49.394;11.136;2022-09-30T01:47:24;6.40;72.80
3198;DHT22;1611;49.394;11.136;2022-09-30T01:49:57;6.40;73.20
3198;DHT22;1611;49.394;11.136;2022-09-30T01:52:31;6.40;73.20
3198;DHT22;1611;49.394;11.136;2022-09-30T01:55:05;6.40;72.90
3198;DHT22;1611;49.394;11.136;2022-09-30T01:57:39;6.40;72.50
3198;DHT22;1611;49.394;11.136;2022-09-30T02:00:10;6.40;72.10
3198;DHT22;1611;49.394;11.136;2022-09-30T02:02:43;6.20;71.70
3198;DHT22;1611;49.394;11.136;2022-09-30T02:05:16;6.10;72.10
3198;DHT22;1611;49.394;11.136;2022-09-30T02:07:48;6.10;71.90
3198;DHT22;1611;49.394;11.136;2022-09-30T02:10:22;6.10;72.60
3198;DHT22;1611;49.394;11.136;2022-09-30T02:12:54;6.20;72.70
3198;DHT22;1611;49.394;11.136;2022-09-30T02:15:24;6.30;73.00
3198;DHT22;1611;49.394;11.136;2022-09-30T02:17:57;6.30;72.70
3198;DHT22;1611;49.394;11.136;2022-09-30T02:20:26;6.30;72.50
3198;DHT22;1611;49.394;11.136;2022-09-30T02:22:55;6.40;72.70
3198;DHT22;1611;49.394;11.136;2022-09-30T02:25:28;6.40;72.50
3198;DHT22;1611;49.394;11.136;2022-09-30T02:27:58;6.50;72.60
3198;DHT22;1611;49.394;11.136;2022-09-30T02:30:26;6.60;72.30
3198;DHT22;1611;49.394;11.136;2022-09-30T02:32:56;6.60;71.80
3198;DHT22;1611;49.394;11.136;2022-09-30T02:35:27;6.60;71.70
3198;DHT22;1611;49.394;11.136;2022-09-30T02:37:58;6.60;72.00
3198;DHT22;1611;49.394;11.136;2022-09-30T02:40:32;6.60;72.00
3198;DHT22;1611;49.394;11.136;2022-09-30T02:43:00;6.60;72.10
3198;DHT22;1611;49.394;11.136;2022-09-30T02:45:31;6.70;72.20
3198;DHT22;1611;49.394;11.136;2022-09-30T02:48:13;6.70;72.30
3198;DHT22;1611;49.394;11.136;2022-09-30T02:50:47;6.80;72.90
3198;DHT22;1611;49.394;11.136;2022-09-30T02:53:21;6.80;72.80
3198;DHT22;1611;49.394;11.136;2022-09-30T02:56:03;6.90;72.70
3198;DHT22;1611;49.394;11.136;2022-09-30T02:58:33;7.00;72.30
3198;DHT22;1611;49.394;11.136;2022-09-30T03:01:04;7.10;72.10
3198;DHT22;1611;49.394;11.136;2022-09-30T03:03:36;7.20;71.50
3198;DHT22;1611;49.394;11.136;2022-09-30T03:06:04;7.20;71.60
3198;DHT22;1611;49.394;11.136;2022-09-30T03:08:32;7.20;70.40
3198;DHT22;1611;49.394;11.136;2022-09-30T03:10:59;7.20;69.80
3198;DHT22;1611;49.394;11.136;2022-09-30T03:13:51;7.20;70.10
3198;DHT22;1611;49.394;11.136;2022-09-30T03:16:25;7.20;70.20
3198;DHT22;1611;49.394;11.136;2022-09-30T03:19:06;7.20;71.30
3198;DHT22;1611;49.394;11.136;2022-09-30T03:21:49;7.10;70.30
3198;DHT22;1611;49.394;11.136;2022-09-30T03:24:39;7.10;70.70
3198;DHT22;1611;49.394;11.136;2022-09-30T03:27:15;6.90;70.60
3198;DHT22;1611;49.394;11.136;2022-09-30T03:29:51;6.80;71.20
3198;DHT22;1611;49.394;11.136;2022-09-30T03:32:32;6.70;72.30
3198;DHT22;1611;49.394;11.136;2022-09-30T03:35:09;6.70;72.00
3198;DHT22;1611;49.394;11.136;2022-09-30T03:37:45;6.60;72.50
3198;DHT22;1611;49.394;11.136;2022-09-30T03:40:22;6.70;72.60
3198;DHT22;1611;49.394;11.136;2022-09-30T03:42:54;6.60;72.60
3198;DHT22;1611;49.394;11.136;2022-09-30T03:45:29;6.60;72.50
3198;DHT22;1611;49.394;11.136;2022-09-30T03:48:03;6.50;72.90
3198;DHT22;1611;49.394;11.136;2022-09-30T03:50:34;6.50;73.80
3198;DHT22;1611;49.394;11.136;2022-09-30T03:53:07;6.60;72.50
3198;DHT22;1611;49.394;11.136;2022-09-30T03:55:43;6.70;72.70
3198;DHT22;1611;49.394;11.136;2022-09-30T03:58:12;6.80;72.40
3198;DHT22;1611;49.394;11.136;2022-09-30T04:00:43;6.80;72.10
3198;DHT22;1611;49.394;11.136;2022-09-30T04:03:11;6.80;72.00
3198;DHT22;1611;49.394;11.136;2022-09-30T04:05:39;6.80;71.70
3198;DHT22;1611;49.394;11.136;2022-09-30T04:08:07;6.80;71.50
3198;DHT22;1611;49.394;11.136;2022-09-30T04:10:33;6.80;71.20
3198;DHT22;1611;49.394;11.136;2022-09-30T04:13:00;6.80;70.90
3198;DHT22;1611;49.394;11.136;2022-09-30T04:15:27;6.80;70.60
3198;DHT22;1611;49.394;11.136;2022-09-30T04:17:54;6.70;70.80
3198;DHT22;1611;49.394;11.136;2022-09-30T04:20:20;6.70;70.60
3198;DHT22;1611;49.394;11.136;2022-09-30T04:22:49;6.70;70.40
3198;DHT22;1611;49.394;11.136;2022-09-30T04:25:15;6.70;70.10
3198;DHT22;1611;49.394;11.136;2022-09-30T04:27:42;6.70;70.90
3198;DHT22;1611;49.394;11.136;2022-09-30T04:30:10;6.70;71.10
3198;DHT22;1611;49.394;11.136;2022-09-30T04:32:36;6.70;71.30
3198;DHT22;1611;49.394;11.136;2022-09-30T04:35:07;6.60;72.00
3198;DHT22;1611;49.394;11.136;2022-09-30T04:37:33;6.60;71.80
3198;DHT22;1611;49.394;11.136;2022-09-30T04:40:02;6.60;72.40
3198;DHT22;1611;49.394;11.136;2022-09-30T04:42:29;6.70;72.50
3198;DHT22;1611;49.394;11.136;2022-09-30T04:44:55;6.70;72.20
3198;DHT22;1611;49.394;11.136;2022-09-30T04:47:23;6.70;72.00
3198;DHT22;1611;49.394;11.136;2022-09-30T04:49:50;6.70;72.00
3198;DHT22;1611;49.394;11.136;2022-09-30T04:52:17;6.70;72.00
3198;DHT22;1611;49.394;11.136;2022-09-30T04:54:43;6.80;71.80
3198;DHT22;1611;49.394;11.136;2022-09-30T04:57:12;6.80;71.60
3198;DHT22;1611;49.394;11.136;2022-09-30T04:59:39;6.90;71.60
3198;DHT22;1611;49.394;11.136;2022-09-30T05:02:06;6.80;71.80
3198;DHT22;1611;49.394;11.136;2022-09-30T05:04:34;6.90;72.80
3198;DHT22;1611;49.394;11.136;2022-09-30T05:07:01;6.80;71.90
3198;DHT22;1611;49.394;11.136;2022-09-30T05:09:33;6.80;72.00
3198;DHT22;1611;49.394;11.136;2022-09-30T05:12:00;6.70;72.00
3198;DHT22;1611;49.394;11.136;2022-09-30T05:14:29;6.70;72.40
3198;DHT22;1611;49.394;11.136;2022-09-30T05:16:56;6.70;72.70
3198;DHT22;1611;49.394;11.136;2022-09-30T05:19:22;6.60;72.80
3198;DHT22;1611;49.394;11.136;2022-09-30T05:21:49;6.60;73.00
3198;DHT22;1611;49.394;11.136;2022-09-30T05:24:16;6.70;73.40
3198;DHT22;1611;49.394;11.136;2022-09-30T05:26:43;6.70;73.60
3198;DHT22;1611;49.394;11.136;2022-09-30T05:29:10;6.80;73.00
3198;DHT22;1611;49.394;11.136;2022-09-30T05:31:38;6.80;73.20
3198;DHT22;1611;49.394;11.136;2022-09-30T05:34:06;6.70;73.30
3198;DHT22;1611;49.394;11.136;2022-09-30T05:36:33;6.70;73.80
3198;DHT22;1611;49.394;11.136;2022-09-30T05:39:01;6.70;73.90
3198;DHT22;1611;49.394;11.136;2022-09-30T05:41:27;6.90;73.90
3198;DHT22;1611;49.394;11.136;2022-09-30T05:43:54;6.90;73.80
3198;DHT22;1611;49.394;11.136;2022-09-30T05:46:21;6.90;73.60
3198;DHT22;1611;49.394;11.136;2022-09-30T05:48:52;6.90;73.40
3198;DHT22;1611;49.394;11.136;2022-09-30T05:51:19;6.90;73.30
3198;DHT22;1611;49.394;11.136;2022-09-30T05:53:45;6.80;73.10
3198;DHT22;1611;49.394;11.136;2022-09-30T05:56:12;6.80;73.70
3198;DHT22;1611;49.394;11.136;2022-09-30T05:58:39;6.80;73.90
3198;DHT22;1611;49.394;11.136;2022-09-30T06:01:08;6.90;74.20
3198;DHT22;1611;49.394;11.136;2022-09-30T06:03:35;7.00;73.80
3198;DHT22;1611;49.394;11.136;2022-09-30T06:06:05;7.00;73.80
3198;DHT22;1611;49.394;11.136;2022-09-30T06:08:32;7.00;74.00
3198;DHT22;1611;49.394;11.136;2022-09-30T06:11:00;7.10;73.60
3198;DHT22;1611;49.394;11.136;2022-09-30T06:13:27;7.20;73.30
3198;DHT22;1611;49.394;11.136;2022-09-30T06:15:55;7.20;73.30
3198;DHT22;1611;49.394;11.136;2022-09-30T06:18:30;7.10;73.30
3198;DHT22;1611;49.394;11.136;2022-09-30T06:20:58;7.20;73.20
3198;DHT22;1611;49.394;11.136;2022-09-30T06:23:26;7.30;72.70
3198;DHT22;1611;49.394;11.136;2022-09-30T06:25:54;7.40;72.60
3198;DHT22;1611;49.394;11.136;2022-09-30T06:28:22;7.50;72.40
3198;DHT22;1611;49.394;11.136;2022-09-30T06:30:49;7.50;71.70
3198;DHT22;1611;49.394;11.136;2022-09-30T06:33:16;7.50;71.20
3198;DHT22;1611;49.394;11.136;2022-09-30T06:35:43;7.70;71.20
3198;DHT22;1611;49.394;11.136;2022-09-30T06:38:12;7.70;70.50
3198;DHT22;1611;49.394;11.136;2022-09-30T06:40:41;7.70;70.20
3198;DHT22;1611;49.394;11.136;2022-09-30T06:43:08;7.70;70.50
3198;DHT22;1611;49.394;11.136;2022-09-30T06:45:35;7.70;69.60
3198;DHT22;1611;49.394;11.136;2022-09-30T06:48:04;7.70;69.70
3198;DHT22;1611;49.394;11.136;2022-09-30T06:50:32;7.70;70.00
3198;DHT22;1611;49.394;11.136;2022-09-30T06:53:00;7.60;70.20
3198;DHT22;1611;49.394;11.136;2022-09-30T06:55:28;7.70;70.50
3198;DHT22;1611;49.394;11.136;2022-09-30T06:57:56;7.70;70.40
3198;DHT22;1611;49.394;11.136;2022-09-30T07:00:25;7.80;70.20
3198;DHT22;1611;49.394;11.136;2022-09-30T07:02:53;7.90;69.70
3198;DHT22;1611;49.394;11.136;2022-09-30T07:05:21;7.90;69.20
3198;DHT22;1611;49.394;11.136;2022-09-30T07:07:49;8.00;69.80
3198;DHT22;1611;49.394;11.136;2022-09-30T07:10:17;8.10;69.30
3198;DHT22;1611;49.394;11.136;2022-09-30T07:12:47;8.00;68.90
3198;DHT22;1611;49.394;11.136;2022-09-30T07:15:15;8.00;68.80
3198;DHT22;1611;49.394;11.136;2022-09-30T07:17:42;8.10;69.20
3198;DHT22;1611;49.394;11.136;2022-09-30T07:20:09;8.10;69.00
3198;DHT22;1611;49.394;11.136;2022-09-30T07:22:36;8.20;68.30
3198;DHT22;1611;49.394;11.136;2022-09-30T07:25:03;8.20;68.20
3198;DHT22;1611;49.394;11.136;2022-09-30T07:27:32;8.20;67.60
3198;DHT22;1611;49.394;11.136;2022-09-30T07:29:58;8.20;67.60
3198;DHT22;1611;49.394;11.136;2022-09-30T07:32:28;8.30;68.10
3198;DHT22;1611;49.394;11.136;2022-09-30T07:34:54;8.40;67.90
3198;DHT22;1611;49.394;11.136;2022-09-30T07:37:23;8.30;68.20
3198;DHT22;1611;49.394;11.136;2022-09-30T07:39:50;8.40;68.70
3198;DHT22;1611;49.394;11.136;2022-09-30T07:42:17;8.60;67.90
3198;DHT22;1611;49.394;11.136;2022-09-30T07:44:46;8.60;68.00
3198;DHT22;1611;49.394;11.136;2022-09-30T07:47:14;8.70;67.90
3198;DHT22;1611;49.394;11.136;2022-09-30T07:49:42;8.80;67.40
3198;DHT22;1611;49.394;11.136;2022-09-30T07:52:09;8.90;66.80
3198;DHT22;1611;49.394;11.136;2022-09-30T07:54:37;9.00;67.20
3198;DHT22;1611;49.394;11.136;2022-09-30T07:57:04;9.10;66.70
3198;DHT22;1611;49.394;11.136;2022-09-30T07:59:34;9.20;66.90
3198;DHT22;1611;49.394;11.136;2022-09-30T08:02:01;9.30;66.70
3198;DHT22;1611;49.394;11.136;2022-09-30T08:04:28;9.20;66.50
3198;DHT22;1611;49.394;11.136;2022-09-30T08:06:58;9.30;66.20
3198;DHT22;1611;49.394;11.136;2022-09-30T08:09:26;9.30;64.80
3198;DHT22;1611;49.394;11.136;2022-09-30T08:11:54;9.20;65.00
3198;DHT22;1611;49.394;11.136;2022-09-30T08:14:22;9.20;65.50
3198;DHT22;1611;49.394;11.136;2022-09-30T08:16:50;9.20;65.60
3198;DHT22;1611;49.394;11.136;2022-09-30T08:19:18;9.20;66.80
3198;DHT22;1611;49.394;11.136;2022-09-30T08:21:46;9.40;71.00
3198;DHT22;1611;49.394;11.136;2022-09-30T08:24:15;9.60;70.10
3198;DHT22;1611;49.394;11.136;2022-09-30T08:26:42;9.70;65.80
3198;DHT22;1611;49.394;11.136;2022-09-30T08:29:09;9.90;67.80
3198;DHT22;1611;49.394;11.136;2022-09-30T08:31:38;9.90;64.70
3198;DHT22;1611;49.394;11.136;2022-09-30T08:34:05;10.10;63.40
3198;DHT22;1611;49.394;11.136;2022-09-30T08:36:32;10.30;61.70
3198;DHT22;1611;49.394;11.136;2022-09-30T08:38:58;10.20;61.20
3198;DHT22;1611;49.394;11.136;2022-09-30T08:41:41;10.20;62.50
3198;DHT22;1611;49.394;11.136;2022-09-30T08:44:20;10.30;63.00
3198;DHT22;1611;49.394;11.136;2022-09-30T08:46:56;10.40;61.70
3198;DHT22;1611;49.394;11.136;2022-09-30T08:49:33;10.30;61.80
3198;DHT22;1611;49.394;11.136;2022-09-30T08:52:09;10.20;63.50
3198;DHT22;1611;49.394;11.136;2022-09-30T08:54:41;10.40;62.60
3198;DHT22;1611;49.394;11.136;2022-09-30T08:57:11;10.50;62.00
3198;DHT22;1611;49.394;11.136;2022-09-30T08:59:43;10.70;61.60
3198;DHT22;1611;49.394;11.136;2022-09-30T09:02:15;10.90;61.60
3198;DHT22;1611;49.394;11.136;2022-09-30T09:04:44;10.80;60.90
3198;DHT22;1611;49.394;11.136;2022-09-30T09:07:21;10.70;61.00
3198;DHT22;1611;49.394;11.136;2022-09-30T09:10:02;10.80;61.70
3198;DHT22;1611;49.394;11.136;2022-09-30T09:12:40;10.70;62.00
3198;DHT22;1611;49.394;11.136;2022-09-30T09:15:21;10.60;62.20
3198;DHT22;1611;49.394;11.136;2022-09-30T09:18:06;10.80;62.10
3198;DHT22;1611;49.394;11.136;2022-09-30T09:20:39;10.70;61.10
3198;DHT22;1611;49.394;11.136;2022-09-30T09:23:09;10.70;62.20
3198;DHT22;1611;49.394;11.136;2022-09-30T09:25:37;10.70;62.10
3198;DHT22;1611;49.394;11.136;2022-09-30T09:28:20;10.90;61.80
3198;DHT22;1611;49.394;11.136;2022-09-30T09:30:51;11.00;60.80
3198;DHT22;1611;49.394;11.136;2022-09-30T09:33:21;11.30;60.80
3198;DHT22;1611;49.394;11.136;2022-09-30T09:35:55;11.40;58.90
3198;DHT22;1611;49.394;11.136;2022-09-30T09:38:27;11.40;58.10
3198;DHT22;1611;49.394;11.136;2022-09-30T09:41:16;11.50;58.30
3198;DHT22;1611;49.394;11.136;2022-09-30T09:43:59;11.60;56.80
3198;DHT22;1611;49.394;11.136;2022-09-30T09:46:31;11.70;56.80
3198;DHT22;1611;49.394;11.136;2022-09-30T09:49:27;11.80;57.10
3198;DHT22;1611;49.394;11.136;2022-09-30T09:54:50;11.80;56.20
3198;DHT22;1611;49.394;11.136;2022-09-30T09:57:22;11.70;57.10
3198;DHT22;1611;49.394;11.136;2022-09-30T09:59:59;11.70;56.90
3198;DHT22;1611;49.394;11.136;2022-09-30T10:02:58;12.00;56.40
3198;DHT22;1611;49.394;11.136;2022-09-30T10:05:27;12.30;55.80
3198;DHT22;1611;49.394;11.136;2022-09-30T10:08:09;12.30;53.90
3198;DHT22;1611;49.394;11.136;2022-09-30T10:10:47;12.50;53.30
3198;DHT22;1611;49.394;11.136;2022-09-30T10:13:16;12.60;53.90
3198;DHT22;1611;49.394;11.136;2022-09-30T10:15:45;12.90;52.70
3198;DHT22;1611;49.394;11.136;2022-09-30T10:18:19;13.00;50.40
3198;DHT22;1611;49.394;11.136;2022-09-30T10:20:51;13.20;48.60
3198;DHT22;1611;49.394;11.136;2022-09-30T10:23:20;13.20;49.00
3198;DHT22;1611;49.394;11.136;2022-09-30T10:25:59;13.30;49.50
3198;DHT22;1611;49.394;11.136;2022-09-30T10:28:28;13.20;50.30
3198;DHT22;1611;49.394;11.136;2022-09-30T10:30:59;13.30;49.70
3198;DHT22;1611;49.394;11.136;2022-09-30T10:33:29;13.30;49.60
3198;DHT22;1611;49.394;11.136;2022-09-30T10:36:06;13.30;49.80
3198;DHT22;1611;49.394;11.136;2022-09-30T10:38:35;13.50;49.10
3198;DHT22;1611;49.394;11.136;2022-09-30T10:41:03;13.60;48.80
3198;DHT22;1611;49.394;11.136;2022-09-30T10:43:35;13.50;48.90
3198;DHT22;1611;49.394;11.136;2022-09-30T10:46:05;13.80;48.80
3198;DHT22;1611;49.394;11.136;2022-09-30T10:48:35;13.80;48.00
3198;DHT22;1611;49.394;11.136;2022-09-30T10:51:04;13.90;47.50
3198;DHT22;1611;49.394;11.136;2022-09-30T10:53:42;14.00;47.30
3198;DHT22;1611;49.394;11.136;2022-09-30T10:56:09;14.10;47.50
3198;DHT22;1611;49.394;11.136;2022-09-30T10:58:42;14.20;47.20
3198;DHT22;1611;49.394;11.136;2022-09-30T11:01:20;14.20;46.40
3198;DHT22;1611;49.394;11.136;2022-09-30T11:04:03;14.20;45.90
3198;DHT22;1611;49.394;11.136;2022-09-30T11:06:33;14.10;45.30
3198;DHT22;1611;49.394;11.136;2022-09-30T11:09:05;14.20;46.00
3198;DHT22;1611;49.394;11.136;2022-09-30T11:11:37;14.50;46.40
3198;DHT22;1611;49.394;11.136;2022-09-30T11:14:18;14.90;42.40
3198;DHT22;1611;49.394;11.136;2022-09-30T11:16:56;15.20;42.30
3198;DHT22;1611;49.394;11.136;2022-09-30T11:19:30;15.60;41.60
3198;DHT22;1611;49.394;11.136;2022-09-30T11:24:49;16.00;37.50
3198;DHT22;1611;49.394;11.136;2022-09-30T11:27:23;15.90;37.20
3198;DHT22;1611;49.394;11.136;2022-09-30T11:30:03;15.90;36.10
3198;DHT22;1611;49.394;11.136;2022-09-30T11:32:54;16.00;36.50
3198;DHT22;1611;49.394;11.136;2022-09-30T11:35:34;16.40;34.30
3198;DHT22;1611;49.394;11.136;2022-09-30T11:38:10;17.20;31.80
3198;DHT22;1611;49.394;11.136;2022-09-30T11:40:46;18.20;30.30
3198;DHT22;1611;49.394;11.136;2022-09-30T11:43:23;19.20;27.60
3198;DHT22;1611;49.394;11.136;2022-09-30T11:46:06;19.80;26.00
3198;DHT22;1611;49.394;11.136;2022-09-30T11:48:51;20.40;25.80
3198;DHT22;1611;49.394;11.136;2022-09-30T11:51:21;21.20;23.80
3198;DHT22;1611;49.394;11.136;2022-09-30T11:54:02;22.50;20.60
3198;DHT22;1611;49.394;11.136;2022-09-30T11:56:46;24.20;18.80
3198;DHT22;1611;49.394;11.136;2022-09-30T11:59:18;25.10;17.00
3198;DHT22;1611;49.394;11.136;2022-09-30T12:01:49;25.30;15.20
3198;DHT22;1611;49.394;11.136;2022-09-30T12:04:22;25.00;16.60
3198;DHT22;1611;49.394;11.136;2022-09-30T12:06:53;24.20;17.20
3198;DHT22;1611;49.394;11.136;2022-09-30T12:09:24;23.00;18.30
3198;DHT22;1611;49.394;11.136;2022-09-30T12:11:56;22.00;20.50
3198;DHT22;1611;49.394;11.136;2022-09-30T12:14:29;21.10;21.80
3198;DHT22;1611;49.394;11.136;2022-09-30T12:17:00;20.50;23.60
3198;DHT22;1611;49.394;11.136;2022-09-30T12:19:33;20.00;25.70
3198;DHT22;1611;49.394;11.136;2022-09-30T12:22:05;19.70;26.20
3198;DHT22;1611;49.394;11.136;2022-09-30T12:24:38;19.30;27.40
3198;DHT22;1611;49.394;11.136;2022-09-30T12:27:14;19.00;28.80
3198;DHT22;1611;49.394;11.136;2022-09-30T12:29:49;18.70;31.60
3198;DHT22;1611;49.394;11.136;2022-09-30T12:33:04;18.40;30.90
3198;DHT22;1611;49.394;11.136;2022-09-30T12:35:46;18.10;31.10
3198;DHT22;1611;49.394;11.136;2022-09-30T12:38:36;17.80;31.30
3198;DHT22;1611;49.394;11.136;2022-09-30T12:41:26;17.60;33.20
3198;DHT22;1611;49.394;11.136;2022-09-30T12:47:14;17.60;34.50
3198;DHT22;1611;49.394;11.136;2022-09-30T12:49:44;17.50;35.00
3198;DHT22;1611;49.394;11.136;2022-09-30T12:52:14;17.50;34.00
3198;DHT22;1611;49.394;11.136;2022-09-30T12:54:47;17.20;31.50
3198;DHT22;1611;49.394;11.136;2022-09-30T12:57:19;17.10;33.10
3198;DHT22;1611;49.394;11.136;2022-09-30T12:59:50;17.00;34.20
3198;DHT22;1611;49.394;11.136;2022-09-30T13:02:27;17.00;32.30
3198;DHT22;1611;49.394;11.136;2022-09-30T13:08:31;17.10;35.10
3198;DHT22;1611;49.394;11.136;2022-09-30T13:11:04;17.10;33.60
3198;DHT22;1611;49.394;11.136;2022-09-30T13:13:32;17.10;33.60
3198;DHT22;1611;49.394;11.136;2022-09-30T13:16:02;17.10;33.60
3198;DHT22;1611;49.394;11.136;2022-09-30T13:18:58;17.10;33.40
3198;DHT22;1611;49.394;11.136;2022-09-30T13:21:25;17.10;33.30
3198;DHT22;1611;49.394;11.136;2022-09-30T13:23:54;17.00;33.80
3198;DHT22;1611;49.394;11.136;2022-09-30T13:26:39;16.90;34.40
3198;DHT22;1611;49.394;11.136;2022-09-30T13:29:25;16.90;35.30
3198;DHT22;1611;49.394;11.136;2022-09-30T13:32:06;16.90;33.30
3198;DHT22;1611;49.394;11.136;2022-09-30T13:34:53;16.90;34.80
3198;DHT22;1611;49.394;11.136;2022-09-30T13:37:42;16.70;36.10
3198;DHT22;1611;49.394;11.136;2022-09-30T13:40:21;16.80;35.50
3198;DHT22;1611;49.394;11.136;2022-09-30T13:42:52;16.80;36.80
3198;DHT22;1611;49.394;11.136;2022-09-30T13:45:28;16.90;35.60
3198;DHT22;1611;49.394;11.136;2022-09-30T13:48:03;16.80;34.70
3198;DHT22;1611;49.394;11.136;2022-09-30T13:50:38;16.70;34.40
3198;DHT22;1611;49.394;11.136;2022-09-30T13:53:14;16.70;32.60
3198;DHT22;1611;49.394;11.136;2022-09-30T13:55:46;16.70;33.40
3198;DHT22;1611;49.394;11.136;2022-09-30T13:58:34;16.60;32.70
3198;DHT22;1611;49.394;11.136;2022-09-30T14:01:16;16.60;35.60
3198;DHT22;1611;49.394;11.136;2022-09-30T14:06:58;16.60;35.50
3198;DHT22;1611;49.394;11.136;2022-09-30T14:09:53;16.60;33.80
3198;DHT22;1611;49.394;11.136;2022-09-30T14:12:42;16.50;34.70
3198;DHT22;1611;49.394;11.136;2022-09-30T14:21:23;16.10;32.80
3198;DHT22;1611;49.394;11.136;2022-09-30T14:23:57;15.90;33.60
3198;DHT22;1611;49.394;11.136;2022-09-30T14:26:47;15.90;35.60
3198;DHT22;1611;49.394;11.136;2022-09-30T14:29:27;15.80;34.00
3198;DHT22;1611;49.394;11.136;2022-09-30T14:31:55;15.70;36.80
3198;DHT22;1611;49.394;11.136;2022-09-30T14:34:25;15.70;37.70
3198;DHT22;1611;49.394;11.136;2022-09-30T14:36:54;15.50;37.30
3198;DHT22;1611;49.394;11.136;2022-09-30T14:39:25;15.50;38.90
3198;DHT22;1611;49.394;11.136;2022-09-30T14:41:54;15.30;41.30
3198;DHT22;1611;49.394;11.136;2022-09-30T14:44:25;15.20;42.30
3198;DHT22;1611;49.394;11.136;2022-09-30T14:46:54;15.10;40.00
3198;DHT22;1611;49.394;11.136;2022-09-30T14:49:27;15.10;43.30
3198;DHT22;1611;49.394;11.136;2022-09-30T14:51:57;15.00;41.50
3198;DHT22;1611;49.394;11.136;2022-09-30T14:54:28;14.80;42.80
3198;DHT22;1611;49.394;11.136;2022-09-30T14:56:57;14.70;44.00
3198;DHT22;1611;49.394;11.136;2022-09-30T14:59:28;15.20;44.40
3198;DHT22;1611;49.394;11.136;2022-09-30T15:01:58;17.10;38.30
3198;DHT22;1611;49.394;11.136;2022-09-30T15:04:28;18.90;33.60
3198;DHT22;1611;49.394;11.136;2022-09-30T15:06:56;19.70;27.30
3198;DHT22;1611;49.394;11.136;2022-09-30T15:09:27;19.50;29.30
3198;DHT22;1611;49.394;11.136;2022-09-30T15:11:55;18.90;30.90
3198;DHT22;1611;49.394;11.136;2022-09-30T15:14:23;18.20;32.70
3198;DHT22;1611;49.394;11.136;2022-09-30T15:16:53;17.50;34.50
3198;DHT22;1611;49.394;11.136;2022-09-30T15:19:22;17.10;36.20
3198;DHT22;1611;49.394;11.136;2022-09-30T15:21:51;16.70;37.70
3198;DHT22;1611;49.394;11.136;2022-09-30T15:24:19;16.20;39.20
3198;DHT22;1611;49.394;11.136;2022-09-30T15:26:48;15.80;40.20
3198;DHT22;1611;49.394;11.136;2022-09-30T15:29:15;15.40;40.60
3198;DHT22;1611;49.394;11.136;2022-09-30T15:31:45;15.10;42.30
3198;DHT22;1611;49.394;11.136;2022-09-30T15:34:15;14.80;44.40
3198;DHT22;1611;49.394;11.136;2022-09-30T15:36:44;14.60;46.40
3198;DHT22;1611;49.394;11.136;2022-09-30T15:39:19;14.40;48.00
3198;DHT22;1611;49.394;11.136;2022-09-30T15:41:47;14.20;48.50
3198;DHT22;1611;49.394;11.136;2022-09-30T15:44:16;14.10;49.90
3198;DHT22;1611;49.394;11.136;2022-09-30T15:47:00;13.90;50.60
3198;DHT22;1611;49.394;11.136;2022-09-30T15:49:33;13.80;50.70
3198;DHT22;1611;49.394;11.136;2022-09-30T15:52:29;13.70;50.90
3198;DHT22;1611;49.394;11.136;2022-09-30T15:55:01;13.60;51.50
3198;DHT22;1611;49.394;11.136;2022-09-30T15:57:44;13.40;52.10
3198;DHT22;1611;49.394;11.136;2022-09-30T16:00:31;13.40;52.60
3198;DHT22;1611;49.394;11.136;2022-09-30T16:03:06;13.30;54.30
3198;DHT22;1611;49.394;11.136;2022-09-30T16:05:38;13.20;54.40
3198;DHT22;1611;49.394;11.136;2022-09-30T16:08:06;13.20;54.70
3198;DHT22;1611;49.394;11.136;2022-09-30T16:10:34;13.10;55.70
3198;DHT22;1611;49.394;11.136;2022-09-30T16:13:02;13.00;56.20
3198;DHT22;1611;49.394;11.136;2022-09-30T16:15:35;12.90;56.60
3198;DHT22;1611;49.394;11.136;2022-09-30T16:18:03;12.90;57.30
3198;DHT22;1611;49.394;11.136;2022-09-30T16:20:30;12.80;57.20
3198;DHT22;1611;49.394;11.136;2022-09-30T16:22:58;12.70;57.60
3198;DHT22;1611;49.394;11.136;2022-09-30T16:25:28;12.60;57.60
3198;DHT22;1611;49.394;11.136;2022-09-30T16:27:58;12.60;58.30
3198;DHT22;1611;49.394;11.136;2022-09-30T16:30:27;12.50;58.30
3198;DHT22;1611;49.394;11.136;2022-09-30T16:32:56;12.40;59.30
3198;DHT22;1611;49.394;11.136;2022-09-30T16:35:25;12.30;60.30
3198;DHT22;1611;49.394;11.136;2022-09-30T16:37:59;12.20;60.50
3198;DHT22;1611;49.394;11.136;2022-09-30T16:40:26;12.20;61.40
3198;DHT22;1611;49.394;11.136;2022-09-30T16:42:54;12.10;61.40
3198;DHT22;1611;49.394;11.136;2022-09-30T16:45:23;12.00;62.00
3198;DHT22;1611;49.394;11.136;2022-09-30T16:47:51;11.80;62.70